Time;durP1;ratioP1;P1;durP2;ratioP2;P2;SDS_P1;SDS_P2;PMS_P1;PMS_P2;Temp;Humidity;BMP_temperature;BMP_pressure;BME280_temperature;BME280_humidity;BME280_pressure;Samples;Min_cycle;Max_cycle;Signal;HPM_P1;HPM_P2
2023/07/04 00:00:13;;;;;;;10.13;4.77;;;;;;;11.83;100.00;100107.97;5012751;28;20038;-73
2023/07/04 00:02:39;;;;;;;10.68;4.65;;;;;;;11.88;100.00;100125.34;5014908;28;20271;-72
2023/07/04 00:05:05;;;;;;;13.18;5.15;;;;;;;11.81;100.00;100128.72;5012097;28;20465;-72
2023/07/04 00:07:31;;;;;;;13.82;6.18;;;;;;;11.83;100.00;100134.72;5014033;28;20167;-73
2023/07/04 00:09:59;;;;;;;18.13;5.43;;;;;;;11.84;100.00;100135.53;5014418;28;20091;-72
2023/07/04 00:12:25;;;;;;;14.73;5.63;;;;;;;11.90;100.00;100142.88;5016809;28;20128;-72
2023/07/04 00:14:50;;;;;;;11.80;5.40;;;;;;;11.88;100.00;100144.06;5009877;28;20491;-72
2023/07/04 00:17:18;;;;;;;14.25;5.80;;;;;;;11.82;100.00;100127.72;5012453;28;20132;-73
2023/07/04 00:19:44;;;;;;;23.50;6.75;;;;;;;11.78;100.00;100115.72;5008866;28;20038;-72
2023/07/04 00:22:09;;;;;;;25.40;5.30;;;;;;;11.83;100.00;100125.88;4998384;28;20018;-72
2023/07/04 00:24:35;;;;;;;9.35;5.43;;;;;;;11.82;100.00;100125.06;4984498;28;20526;-72
2023/07/04 00:27:00;;;;;;;16.93;5.63;;;;;;;11.84;100.00;100125.66;5011884;28;20072;-72
2023/07/04 00:29:26;;;;;;;16.20;5.00;;;;;;;11.93;100.00;100109.56;5016349;28;20284;-72
2023/07/04 00:31:52;;;;;;;18.30;5.20;;;;;;;11.90;100.00;100107.28;5012187;28;20113;-72
2023/07/04 00:34:17;;;;;;;19.37;5.03;;;;;;;11.88;100.00;100101.28;5014493;28;20060;-72
2023/07/04 00:36:42;;;;;;;10.40;4.47;;;;;;;11.96;100.00;100104.69;5008696;28;20040;-72
2023/07/04 00:39:08;;;;;;;10.63;4.63;;;;;;;11.91;100.00;100101.72;5001731;28;20116;-72
2023/07/04 00:41:35;;;;;;;12.13;4.93;;;;;;;11.93;100.00;100114.91;4997656;28;20071;-73
2023/07/04 00:44:11;;;;;;;14.50;4.72;;;;;;;11.92;100.00;100091.88;5000098;28;20030;-73
2023/07/04 00:46:53;;;;;;;22.75;5.10;;;;;;;11.88;100.00;100090.59;5011258;28;20123;-72
2023/07/04 00:49:30;;;;;;;12.40;3.72;;;;;;;11.83;100.00;100096.47;5015579;28;20041;-73
2023/07/04 00:52:04;;;;;;;13.18;4.07;;;;;;;11.94;100.00;100098.69;4999913;28;20046;-72
2023/07/04 00:54:37;;;;;;;10.55;3.67;;;;;;;11.93;100.00;100098.88;5012211;28;20468;-72
2023/07/04 00:57:06;;;;;;;10.15;3.55;;;;;;;11.92;100.00;100097.22;4995012;28;20037;-72
2023/07/04 00:59:43;;;;;;;16.80;4.07;;;;;;;11.87;100.00;100097.78;5013156;28;20022;-72
2023/07/04 01:02:10;;;;;;;13.15;3.85;;;;;;;11.90;100.00;100097.41;5003225;28;20033;-72
2023/07/04 01:04:36;;;;;;;5.88;3.33;;;;;;;11.97;100.00;100092.94;5010923;28;20445;-72
2023/07/04 01:07:22;;;;;;;5.72;2.65;;;;;;;11.96;100.00;100079.75;4994820;28;20085;-72
2023/07/04 01:09:54;;;;;;;9.93;3.60;;;;;;;11.98;100.00;100085.75;5002288;28;20038;-72
2023/07/04 01:12:20;;;;;;;11.32;3.58;;;;;;;12.03;100.00;100073.50;5016787;28;20032;-72
2023/07/04 01:14:48;;;;;;;6.82;3.70;;;;;;;12.10;100.00;100088.78;5011238;28;20025;-72
2023/07/04 01:17:13;;;;;;;10.50;3.85;;;;;;;12.03;100.00;100078.84;5013986;28;20030;-72
2023/07/04 01:19:39;;;;;;;12.07;2.75;;;;;;;12.01;100.00;100090.72;5013060;28;20489;-73
2023/07/04 01:22:20;;;;;;;8.52;2.88;;;;;;;12.08;100.00;100093.47;4996279;28;20646;-72
2023/07/04 01:25:05;;;;;;;12.32;3.33;;;;;;;12.05;100.00;100110.75;4990800;28;20042;-72
2023/07/04 01:27:31;;;;;;;13.90;3.83;;;;;;;11.92;100.00;100097.22;5030128;28;20053;-72
2023/07/04 01:30:03;;;;;;;8.73;3.75;;;;;;;11.91;100.00;100127.66;4996488;28;20022;-72
2023/07/04 01:32:29;;;;;;;12.75;4.38;;;;;;;11.80;100.00;100132.44;5012744;28;20049;-72
2023/07/04 01:34:58;;;;;;;10.20;4.20;;;;;;;11.78;100.00;100139.81;4998655;28;20093;-72
2023/07/04 01:37:31;;;;;;;8.35;3.40;;;;;;;11.67;100.00;100139.44;5029246;28;20051;-72
2023/07/04 01:39:58;;;;;;;10.23;3.70;;;;;;;11.67;100.00;100142.94;5012625;28;20446;-72
2023/07/04 01:42:28;;;;;;;8.27;3.70;;;;;;;11.60;100.00;100150.03;5013371;28;20075;-72
2023/07/04 01:44:54;;;;;;;14.90;5.03;;;;;;;11.62;100.00;100151.50;4999213;28;20041;-72
2023/07/04 01:47:19;;;;;;;12.17;4.53;;;;;;;11.62;100.00;100154.19;4997320;28;20033;-72
2023/07/04 01:49:45;;;;;;;12.77;4.33;;;;;;;11.65;100.00;100157.50;5014435;28;20038;-72
2023/07/04 01:52:11;;;;;;;13.05;5.13;;;;;;;11.69;100.00;100169.50;5016542;28;20021;-72
2023/07/04 01:54:37;;;;;;;12.60;4.03;;;;;;;11.74;100.00;100165.25;5010042;28;20501;-73
2023/07/04 01:57:02;;;;;;;9.00;4.75;;;;;;;11.78;100.00;100165.72;4995503;28;20026;-72
2023/07/04 01:59:28;;;;;;;17.27;5.60;;;;;;;11.76;100.00;100171.25;5014271;28;20579;-72
2023/07/04 02:01:53;;;;;;;15.43;4.83;;;;;;;11.75;100.00;100174.94;5010587;28;20109;-73
2023/07/04 02:04:18;;;;;;;10.03;4.37;;;;;;;11.83;100.00;100180.19;4998123;28;20089;-72
2023/07/04 02:06:44;;;;;;;8.03;4.63;;;;;;;11.73;100.00;100174.31;5011723;28;20045;-72
2023/07/04 02:09:10;;;;;;;17.02;4.53;;;;;;;11.75;100.00;100169.59;5012107;28;20141;-72
2023/07/04 02:11:35;;;;;;;17.87;4.00;;;;;;;11.75;100.00;100174.94;5011667;28;20091;-72
2023/07/04 02:14:00;;;;;;;7.67;4.20;;;;;;;11.73;100.00;100174.31;4996680;28;20161;-72
2023/07/04 02:16:26;;;;;;;13.87;5.57;;;;;;;11.68;100.00;100163.28;5010969;28;20398;-72
2023/07/04 02:18:52;;;;;;;18.85;4.50;;;;;;;11.61;100.00;100178.41;4998024;28;20093;-72
2023/07/04 02:21:18;;;;;;;10.87;4.43;;;;;;;11.66;100.00;100175.19;5011484;28;20418;-72
2023/07/04 02:23:44;;;;;;;18.33;4.63;;;;;;;11.63;100.00;100184.41;4997472;28;20038;-72
2023/07/04 02:26:11;;;;;;;13.68;4.00;;;;;;;11.65;100.00;100187.75;5007140;28;20405;-72
2023/07/04 02:28:37;;;;;;;13.68;4.30;;;;;;;11.59;100.00;100175.94;5014816;28;20124;-73
2023/07/04 02:31:03;;;;;;;13.17;4.47;;;;;;;11.58;100.00;100179.63;5009137;28;20125;-73
2023/07/04 02:33:28;;;;;;;19.00;4.97;;;;;;;11.65;100.00;100187.75;5011603;28;20036;-72
2023/07/04 02:35:54;;;;;;;13.65;3.30;;;;;;;11.59;100.00;100172.44;4993868;28;20034;-72
2023/07/04 02:38:20;;;;;;;9.75;3.47;;;;;;;11.60;100.00;100163.41;5013355;28;20405;-72
2023/07/04 02:40:47;;;;;;;10.17;4.13;;;;;;;11.63;100.00;100160.34;5011594;28;20038;-73
2023/07/04 02:43:14;;;;;;;12.10;2.88;;;;;;;11.68;100.00;100155.28;5010760;28;20399;-72
2023/07/04 02:45:40;;;;;;;8.85;2.80;;;;;;;11.70;100.00;100155.94;4994244;28;20022;-72
2023/07/04 02:48:09;;;;;;;7.28;3.00;;;;;;;11.82;100.00;100156.28;4992884;28;20033;-72
2023/07/04 02:50:35;;;;;;;12.27;3.55;;;;;;;11.81;100.00;100160.00;4999800;28;20034;-72
2023/07/04 02:53:01;;;;;;;14.05;3.53;;;;;;;11.84;100.00;100173.81;5007830;28;20034;-72
2023/07/04 02:55:27;;;;;;;10.48;3.42;;;;;;;11.77;100.00;100174.75;5008314;28;20022;-72
2023/07/04 02:57:53;;;;;;;12.35;3.42;;;;;;;11.76;100.00;100181.13;4999250;28;20037;-72
2023/07/04 03:00:18;;;;;;;7.03;3.73;;;;;;;11.69;100.00;100178.34;5016730;28;20485;-72
2023/07/04 03:02:46;;;;;;;8.70;3.00;;;;;;;11.70;100.00;100184.50;4994692;28;20041;-72
2023/07/04 03:05:12;;;;;;;9.95;3.00;;;;;;;11.67;100.00;100185.72;5010230;28;20394;-72
2023/07/04 03:07:38;;;;;;;7.40;3.35;;;;;;;11.69;100.00;100178.34;5010546;28;20082;-72
2023/07/04 03:10:05;;;;;;;10.25;4.32;;;;;;;11.71;100.00;100181.66;5012333;28;20037;-73
2023/07/04 03:12:31;;;;;;;11.00;3.60;;;;;;;11.69;100.00;100177.53;5012484;28;20029;-72
2023/07/04 03:14:58;;;;;;;15.00;2.88;;;;;;;11.70;100.00;100177.31;4981604;28;20426;-73
2023/07/04 03:17:24;;;;;;;8.68;2.90;;;;;;;11.77;100.00;100180.91;5012382;28;20470;-72
2023/07/04 03:19:49;;;;;;;10.13;3.23;;;;;;;11.69;100.00;100172.19;5009887;28;20049;-72
2023/07/04 03:22:18;;;;;;;11.57;2.80;;;;;;;11.79;100.00;100178.88;5018369;28;20383;-72
2023/07/04 03:24:43;;;;;;;8.68;3.08;;;;;;;11.73;100.00;100162.75;5006451;28;20068;-72
2023/07/04 03:27:09;;;;;;;12.00;4.10;;;;;;;11.70;100.00;100169.28;4993398;28;20798;-73
2023/07/04 03:29:35;;;;;;;14.25;3.83;;;;;;;11.73;100.00;100171.63;4999659;28;20700;-72
2023/07/04 03:32:01;;;;;;;9.95;3.33;;;;;;;11.74;100.00;100175.94;5007545;28;20050;-73
2023/07/04 03:34:26;;;;;;;9.88;2.63;;;;;;;11.75;100.00;100171.41;5011825;28;20492;-73
2023/07/04 03:36:52;;;;;;;7.10;3.77;;;;;;;11.76;100.00;100179.28;4999695;28;20130;-72
2023/07/04 03:39:17;;;;;;;13.53;3.07;;;;;;;11.80;100.00;100177.91;5015417;28;20071;-73
2023/07/04 03:41:42;;;;;;;10.87;2.83;;;;;;;11.76;100.00;100171.25;5014541;28;20045;-72
2023/07/04 03:44:08;;;;;;;13.17;3.13;;;;;;;11.80;100.00;100177.91;4992684;28;20026;-72
2023/07/04 03:46:33;;;;;;;8.77;3.10;;;;;;;11.79;100.00;100162.03;5014693;28;20037;-72
2023/07/04 03:48:59;;;;;;;8.13;2.47;;;;;;;11.72;100.00;100172.63;5013027;28;20129;-72
2023/07/04 03:51:24;;;;;;;11.37;2.50;;;;;;;11.73;100.00;100184.13;4999624;28;20127;-72
2023/07/04 03:53:50;;;;;;;14.10;2.20;;;;;;;11.69;100.00;100183.69;4981436;28;20041;-72
2023/07/04 03:56:15;;;;;;;9.77;2.70;;;;;;;11.70;100.00;100193.38;4999805;28;20029;-72
2023/07/04 03:58:41;;;;;;;9.45;2.60;;;;;;;11.77;100.00;100188.13;5005811;28;20033;-73
2023/07/04 04:01:07;;;;;;;10.00;2.47;;;;;;;11.75;100.00;100182.13;5014696;28;20021;-72
2023/07/04 04:03:39;;;;;;;7.43;2.83;;;;;;;11.71;100.00;100168.31;5015046;28;20757;-72
2023/07/04 04:06:06;;;;;;;5.70;2.45;;;;;;;11.76;100.00;100181.94;5015297;28;20095;-72
2023/07/04 04:08:31;;;;;;;9.50;2.60;;;;;;;11.78;100.00;100182.59;5015939;28;20026;-72
2023/07/04 04:10:57;;;;;;;6.20;2.47;;;;;;;11.84;100.00;100181.00;5013185;28;20049;-72
2023/07/04 04:13:24;;;;;;;7.47;2.63;;;;;;;12.00;100.00;100183.53;4999292;28;20032;-72
2023/07/04 04:15:49;;;;;;;5.78;2.30;;;;;;;12.00;100.00;100190.72;5012106;28;20030;-72
2023/07/04 04:18:15;;;;;;;9.90;2.08;;;;;;;12.09;100.00;100188.81;5016995;28;20088;-72
2023/07/04 04:20:40;;;;;;;9.13;1.93;;;;;;;12.09;100.00;100181.59;5011458;28;20119;-72
2023/07/04 04:23:05;;;;;;;7.13;3.10;;;;;;;12.02;100.00;100172.66;5011330;28;20069;-72
2023/07/04 04:25:37;;;;;;;19.23;2.63;;;;;;;12.14;100.00;100178.38;5011722;28;20078;-72
2023/07/04 04:28:06;;;;;;;9.45;2.03;;;;;;;12.08;100.00;100171.06;5011677;28;20491;-72
2023/07/04 04:30:32;;;;;;;12.05;2.42;;;;;;;12.17;100.00;100186.00;5011574;28;20053;-72
2023/07/04 04:32:57;;;;;;;6.17;1.63;;;;;;;12.18;100.00;100179.66;5011901;28;20073;-72
2023/07/04 04:35:25;;;;;;;12.63;3.03;;;;;;;12.18;100.00;100188.50;5016432;28;20014;-72
2023/07/04 04:37:50;;;;;;;13.10;1.85;;;;;;;12.27;100.00;100183.03;5011078;28;20048;-73
2023/07/04 04:40:19;;;;;;;10.70;2.15;;;;;;;12.37;100.00;100186.28;5013117;28;20154;-72
2023/07/04 04:42:44;;;;;;;9.50;3.13;;;;;;;12.27;100.00;100183.03;5013492;28;20046;-72
2023/07/04 04:45:11;;;;;;;5.67;2.03;;;;;;;12.12;100.00;100170.50;4996408;28;20285;-72
2023/07/04 04:47:39;;;;;;;13.95;2.92;;;;;;;12.12;100.00;100173.19;5015330;28;20046;-72
2023/07/04 04:50:05;;;;;;;8.30;2.42;;;;;;;12.24;100.00;100176.22;5011361;28;20429;-72
2023/07/04 04:52:33;;;;;;;12.35;3.05;;;;;;;12.34;100.00;100189.28;5010106;28;20128;-73
2023/07/04 04:55:02;;;;;;;7.50;1.90;;;;;;;12.49;100.00;100184.75;5013510;28;20026;-72
2023/07/04 04:57:29;;;;;;;13.55;2.35;;;;;;;12.35;100.00;100161.53;5013980;28;20108;-72
2023/07/04 04:59:59;;;;;;;4.85;1.95;;;;;;;12.62;100.00;100195.63;5011359;28;20399;-73
2023/07/04 05:02:25;;;;;;;10.20;2.15;;;;;;;12.57;100.00;100181.97;5013890;28;20091;-72
2023/07/04 05:04:50;;;;;;;6.28;2.08;;;;;;;12.66;100.00;100180.00;5014320;28;20032;-72
2023/07/04 05:07:16;;;;;;;6.40;2.50;;;;;;;12.72;100.00;100175.75;5011333;28;20038;-72
2023/07/04 05:09:41;;;;;;;6.60;2.00;;;;;;;12.81;100.00;100162.03;5011617;28;20430;-72
2023/07/04 05:12:07;;;;;;;14.27;2.57;;;;;;;12.76;100.00;100148.38;5003978;28;20407;-72
2023/07/04 05:14:32;;;;;;;6.57;1.70;;;;;;;13.02;100.00;100163.03;5014711;28;20036;-73
2023/07/04 05:16:58;;;;;;;8.55;1.80;;;;;;;13.26;100.00;100164.47;4997451;28;20117;-73
2023/07/04 05:19:23;;;;;;;5.70;1.87;;;;;;;13.12;100.00;100120.66;5012645;28;20494;-73
2023/07/04 05:21:48;;;;;;;12.60;2.00;;;;;;;13.21;100.00;100127.53;4982436;28;20468;-73
2023/07/04 05:24:15;;;;;;;14.57;2.00;;;;;;;13.31;100.00;100127.22;5012715;28;20137;-73
2023/07/04 05:26:40;;;;;;;8.90;1.98;;;;;;;13.52;100.00;100131.69;5013239;28;20049;-73
2023/07/04 05:29:08;;;;;;;7.33;1.90;;;;;;;13.39;100.00;100113.69;5014733;28;20099;-73
2023/07/04 05:31:34;;;;;;;7.63;1.92;;;;;;;13.55;100.00;100109.84;5011371;28;20072;-73
2023/07/04 05:33:59;;;;;;;12.30;2.28;;;;;;;13.86;100.00;100114.75;5011199;28;20050;-73
2023/07/04 05:36:28;;;;;;;10.73;1.98;;;;;;;14.36;100.00;100111.84;5010240;28;20102;-73
2023/07/04 05:38:56;;;;;;;11.43;2.38;;;;;;;14.72;100.00;100036.28;5012695;28;20079;-73
2023/07/04 05:41:25;;;;;;;8.50;1.48;;;;;;;14.54;100.00;99983.19;5010083;28;20171;-73
2023/07/04 05:43:53;;;;;;;8.25;2.08;;;;;;;14.28;100.00;99986.66;5003256;28;20451;-73
2023/07/04 05:46:18;;;;;;;3.67;1.92;;;;;;;14.62;100.00;100056.53;4991977;28;20133;-73
2023/07/04 05:48:44;;;;;;;9.97;2.20;;;;;;;15.17;100.00;100003.34;5014640;28;20109;-73
2023/07/04 05:51:12;;;;;;;7.25;2.15;;;;;;;15.49;100.00;99950.50;4999101;28;20148;-73
2023/07/04 05:53:42;;;;;;;5.82;1.80;;;;;;;15.91;100.00;99842.44;4998059;28;20030;-73
2023/07/04 05:56:12;;;;;;;7.55;2.88;;;;;;;16.38;100.00;99795.16;4995262;28;20038;-73
2023/07/04 05:58:43;;;;;;;10.32;2.13;;;;;;;16.51;100.00;99752.97;5011750;28;20405;-73
2023/07/04 06:01:11;;;;;;;10.50;1.77;;;;;;;16.36;100.00;99662.56;5013342;28;20082;-73
2023/07/04 06:03:38;;;;;;;4.93;1.42;;;;;;;15.17;100.00;99657.38;5002602;28;20030;-73
2023/07/04 06:06:05;;;;;;;6.05;1.65;;;;;;;15.87;100.00;99833.97;5005826;28;20395;-73
2023/07/04 06:08:31;;;;;;;9.98;2.10;;;;;;;15.42;100.00;99680.75;5004877;28;20725;-73
2023/07/04 06:11:05;;;;;;;4.43;1.67;;;;;;;14.80;100.00;99703.91;5014701;28;20522;-73
2023/07/04 06:13:31;;;;;;;9.00;1.83;;;;;;;15.57;100.00;99874.94;4990798;28;20570;-73
2023/07/04 06:15:58;;;;;;;5.40;1.98;;;;;;;16.20;100.00;99816.69;5011470;28;20541;-73
2023/07/04 06:18:24;;;;;;;10.30;1.77;;;;;;;16.24;100.00;99640.16;5004386;28;20037;-73
2023/07/04 06:20:50;;;;;;;6.38;1.75;;;;;;;16.29;100.00;99675.31;4990470;28;20022;-73
2023/07/04 06:23:20;;;;;;;9.63;1.83;;;;;;;16.86;100.00;99638.09;4993704;28;20483;-73
2023/07/04 06:25:46;;;;;;;12.20;1.65;;;;;;;17.24;100.00;99533.56;4999453;28;20066;-73
2023/07/04 06:28:11;;;;;;;7.85;1.65;;;;;;;16.86;100.00;99460.19;5009763;28;20065;-73
2023/07/04 06:30:38;;;;;;;10.20;2.43;;;;;;;16.19;100.00;99502.69;5016063;28;20048;-73
2023/07/04 06:33:05;;;;;;;10.30;1.67;;;;;;;16.32;100.00;99591.38;5002876;28;20034;-73
2023/07/04 06:35:30;;;;;;;6.07;1.63;;;;;;;16.46;100.00;99465.41;5000979;28;20410;-73
2023/07/04 06:37:56;;;;;;;4.68;1.45;;;;;;;17.08;100.00;99552.06;4989770;28;20475;-73
2023/07/04 06:40:24;;;;;;;5.28;1.55;;;;;;;16.46;100.00;99277.66;4990791;28;20073;-73
2023/07/04 06:42:50;;;;;;;6.35;1.25;;;;;;;17.04;100.00;99455.72;5006029;28;20050;-73
2023/07/04 06:45:15;;;;;;;8.90;1.50;;;;;;;17.39;100.00;99344.22;4993526;28;20069;-74
2023/07/04 06:47:40;;;;;;;5.40;1.20;;;;;;;17.52;100.00;99333.94;4994628;28;20122;-73
2023/07/04 06:50:06;;;;;;;5.80;1.37;;;;;;;17.57;100.00;99257.66;4994654;28;20668;-73
2023/07/04 06:52:35;;;;;;;4.35;1.60;;;;;;;17.69;100.00;99331.28;5005447;28;20052;-73
2023/07/04 06:55:00;;;;;;;9.50;1.75;;;;;;;18.60;100.00;99346.50;4989505;28;20042;-73
2023/07/04 06:57:26;;;;;;;8.70;1.50;;;;;;;17.69;100.00;99147.75;5013093;28;20029;-74
2023/07/04 06:59:51;;;;;;;5.50;1.80;;;;;;;17.92;100.00;99189.16;4989743;28;20061;-74
2023/07/04 07:02:17;;;;;;;5.88;1.42;;;;;;;17.71;100.00;99360.72;5004532;28;20052;-74
2023/07/04 07:04:42;;;;;;;6.53;1.60;;;;;;;18.17;100.00;99501.16;5002401;28;20072;-74
2023/07/04 07:07:09;;;;;;;6.07;1.80;;;;;;;17.67;100.00;99233.53;4997609;28;20033;-73
2023/07/04 07:09:40;;;;;;;5.43;1.35;;;;;;;18.92;100.00;99514.34;4998927;28;20041;-74
2023/07/04 07:12:07;;;;;;;8.23;2.15;;;;;;;17.60;100.00;99184.31;5015714;28;20037;-73
2023/07/04 07:14:32;;;;;;;12.07;2.35;;;;;;;16.91;100.00;99400.19;5002629;28;20483;-74
2023/07/04 07:16:58;;;;;;;17.33;2.60;;;;;;;17.83;100.00;99615.28;4984905;28;20069;-73
2023/07/04 07:19:24;;;;;;;12.33;2.53;;;;;;;17.86;100.00;99554.59;4994419;28;20033;-74
2023/07/04 07:21:49;;;;;;;5.28;1.60;;;;;;;17.31;100.00;99526.16;4995016;28;20065;-74
2023/07/04 07:24:15;;;;;;;8.30;3.23;;;;;;;18.23;100.00;99548.81;4996114;28;20522;-74
2023/07/04 07:26:40;;;;;;;5.20;1.40;;;;;;;18.51;100.00;99383.94;5016296;28;20049;-74
2023/07/04 07:29:06;;;;;;;11.48;2.10;;;;;;;17.85;100.00;99342.38;4989535;28;20624;-73
2023/07/04 07:31:31;;;;;;;8.93;1.40;;;;;;;17.99;100.00;99395.00;5005866;28;20026;-74
2023/07/04 07:33:56;;;;;;;7.43;1.70;;;;;;;18.65;100.00;99529.56;4986222;28;20516;-73
2023/07/04 07:36:30;;;;;;;4.10;2.20;;;;;;;18.27;98.18;99293.34;4989835;28;20123;-73
2023/07/04 07:38:55;;;;;;;11.07;2.75;;;;;;;18.76;95.85;99318.63;4994599;28;20042;-74
2023/07/04 07:41:25;;;;;;;10.77;2.27;;;;;;;18.43;95.42;99287.09;4991174;28;20097;-74
2023/07/04 07:43:51;;;;;;;6.28;1.92;;;;;;;18.56;94.71;99278.59;5003343;28;20491;-74
2023/07/04 07:46:18;;;;;;;10.90;1.60;;;;;;;18.65;93.14;99286.28;5012263;28;20116;-73
2023/07/04 07:48:44;;;;;;;8.15;1.92;;;;;;;18.14;93.12;99244.00;4991580;28;20093;-74
2023/07/04 07:51:12;;;;;;;5.88;2.00;;;;;;;18.59;95.04;99498.09;5010108;28;20129;-74
2023/07/04 07:53:40;;;;;;;14.07;2.33;;;;;;;18.00;91.92;99134.69;5011082;28;20041;-73
2023/07/04 07:56:07;;;;;;;5.53;1.60;;;;;;;17.78;92.34;99195.94;5007773;28;20029;-73
2023/07/04 07:58:33;;;;;;;5.70;2.55;;;;;;;18.44;90.41;99261.69;5010418;28;20033;-73
2023/07/04 08:00:59;;;;;;;4.10;1.50;;;;;;;18.88;89.16;99293.34;5005155;28;20050;-74
2023/07/04 08:03:27;;;;;;;9.88;1.80;;;;;;;18.23;88.49;99122.03;5007162;28;20477;-74
2023/07/04 08:05:52;;;;;;;5.85;1.80;;;;;;;18.70;87.39;99180.91;5003544;28;20034;-73
2023/07/04 08:08:18;;;;;;;7.88;1.88;;;;;;;19.02;87.90;99320.84;5009384;28;20502;-73
2023/07/04 08:10:43;;;;;;;2.50;1.20;;;;;;;18.05;84.67;98851.25;4993333;28;20117;-73
2023/07/04 08:13:10;;;;;;;10.38;2.45;;;;;;;17.59;88.41;99111.72;5008108;28;20347;-73
2023/07/04 08:15:36;;;;;;;8.70;1.70;;;;;;;18.63;90.36;99547.91;5008031;28;20061;-73
2023/07/04 08:18:09;;;;;;;7.17;1.70;;;;;;;18.25;89.30;99341.38;5008807;28;20487;-74
2023/07/04 08:20:35;;;;;;;5.68;1.58;;;;;;;17.88;88.19;99174.50;5011839;28;20287;-73
2023/07/04 08:23:00;;;;;;;8.02;1.85;;;;;;;17.42;89.08;99223.16;4980292;28;20030;-73
2023/07/04 08:25:26;;;;;;;10.50;1.60;;;;;;;18.49;86.34;99277.16;5013988;28;20037;-74
2023/07/04 08:27:53;;;;;;;8.05;2.40;;;;;;;18.64;86.43;99322.50;5014059;28;20060;-73
2023/07/04 08:30:19;;;;;;;;;;;;;;;18.28;84.36;99076.16;5015797;28;20037;-74
2023/07/04 08:32:44;;;;;;;7.45;1.70;;;;;;;18.38;85.67;99245.66;5012038;28;19913;-74
2023/07/04 08:35:09;;;;;;;7.33;2.10;;;;;;;17.63;85.57;99057.00;5015144;28;20091;-72
2023/07/04 08:37:35;;;;;;;13.73;2.93;;;;;;;17.60;87.99;99284.16;5011418;28;20065;-74
2023/07/04 08:40:00;;;;;;;5.90;1.60;;;;;;;18.52;84.58;99250.47;5000287;28;20110;-73
2023/07/04 08:42:29;;;;;;;6.53;1.90;;;;;;;18.64;82.50;99111.69;5017565;28;20418;-73
2023/07/04 08:44:55;;;;;;;8.20;2.45;;;;;;;18.50;79.06;98809.44;5014203;28;20542;-73
2023/07/04 08:47:25;;;;;;;9.90;1.88;;;;;;;18.62;79.09;98922.72;5015795;28;20043;-74
2023/07/04 08:50:11;;;;;;;7.65;1.80;;;;;;;18.26;77.12;98662.34;5010394;28;20046;-73
2023/07/04 08:52:44;;;;;;;6.88;2.05;;;;;;;19.45;77.24;99086.38;4991303;28;20577;-73
2023/07/04 08:55:14;;;;;;;8.57;1.80;;;;;;;18.88;78.38;99025.69;4997740;28;20455;-74
2023/07/04 08:57:51;;;;;;;6.45;1.70;;;;;;;19.08;79.79;99209.75;5015547;28;20037;-73
2023/07/04 09:00:36;;;;;;;6.43;2.33;;;;;;;18.42;80.03;99071.97;4986490;28;20064;-74
2023/07/04 09:03:28;;;;;;;9.65;2.28;;;;;;;18.88;80.10;99193.31;5008448;28;20042;-73
2023/07/04 09:06:08;;;;;;;6.32;1.85;;;;;;;19.96;81.09;99571.53;5010672;28;20034;-73
2023/07/04 09:08:58;;;;;;;4.38;1.40;;;;;;;20.18;79.65;99444.97;5013204;28;20037;-73
2023/07/04 09:11:24;;;;;;;7.07;1.67;;;;;;;19.32;76.78;98965.91;5012511;28;20501;-74
2023/07/04 09:13:56;;;;;;;6.75;1.50;;;;;;;19.20;77.26;99077.03;5010719;28;20494;-73
2023/07/04 09:16:26;;;;;;;6.35;1.60;;;;;;;18.60;74.52;98648.44;5015598;28;20029;-74
2023/07/04 09:19:19;;;;;;;2.83;1.40;;;;;;;18.24;77.13;98896.75;4999162;28;20045;-73
2023/07/04 09:21:45;;;;;;;6.95;1.73;;;;;;;19.13;75.26;98969.06;5008322;28;20224;-72
2023/07/04 09:24:11;;;;;;;7.82;1.63;;;;;;;17.88;76.38;98791.16;5013043;28;20394;-73
2023/07/04 09:26:42;;;;;;;3.78;1.70;;;;;;;17.87;77.27;98878.63;5012591;28;20059;-73
2023/07/04 09:29:09;;;;;;;5.20;1.85;;;;;;;17.81;77.62;98950.63;5012100;28;20112;-73
2023/07/04 09:31:40;;;;;;;6.97;1.83;;;;;;;18.18;78.82;99141.69;5009949;28;20156;-73
2023/07/04 09:34:13;;;;;;;5.80;1.38;;;;;;;17.71;77.89;98915.41;5003096;28;20125;-73
2023/07/04 09:36:39;;;;;;;6.90;1.63;;;;;;;18.06;81.45;99357.03;5011017;28;20407;-73
2023/07/04 09:39:05;;;;;;;5.22;1.33;;;;;;;17.51;79.41;99011.25;5014330;28;20025;-73
2023/07/04 09:41:33;;;;;;;5.03;1.60;;;;;;;17.30;81.02;99115.34;5013851;28;20407;-73
2023/07/04 09:44:33;;;;;;;6.55;1.38;;;;;;;17.51;81.13;99224.41;5010035;28;20487;-73
2023/07/04 09:47:00;;;;;;;4.40;1.00;;;;;;;18.35;80.99;99426.13;4998031;28;20154;-73
2023/07/04 09:49:31;;;;;;;2.70;1.10;;;;;;;18.39;78.37;99153.56;5014390;28;20499;-73
2023/07/04 09:52:04;;;;;;;8.05;1.60;;;;;;;18.13;77.56;99031.72;5008062;28;20049;-73
2023/07/04 09:54:32;;;;;;;6.68;1.25;;;;;;;17.58;81.76;99243.09;5011655;28;20048;-72
2023/07/04 09:57:25;;;;;;;7.47;2.17;;;;;;;17.59;85.54;99557.78;5008528;28;20203;-73
2023/07/04 09:59:52;;;;;;;4.47;1.20;;;;;;;17.71;92.55;99973.47;4996124;28;20096;-73
2023/07/04 10:02:24;;;;;;;9.10;2.08;;;;;;;17.35;91.89;99802.50;5009546;28;20104;-73
2023/07/04 10:04:50;;;;;;;7.32;1.40;;;;;;;17.18;95.80;99907.50;4995486;28;20397;-73
2023/07/04 10:07:19;;;;;;;7.90;1.55;;;;;;;17.05;98.86;99991.25;5012319;28;20073;-73
2023/07/04 10:09:52;;;;;;;7.07;2.35;;;;;;;15.74;100.00;100004.44;5006909;28;20037;-73
2023/07/04 10:12:19;;;;;;;7.22;1.42;;;;;;;14.24;100.00;100129.56;5012651;28;20037;-73
2023/07/04 10:15:10;;;;;;;3.42;1.30;;;;;;;13.74;100.00;100395.34;5011831;28;20456;-73
2023/07/04 10:17:37;;;;;;;9.50;1.80;;;;;;;13.61;100.00;100617.88;5009723;28;20479;-73
2023/07/04 10:20:10;;;;;;;6.05;1.85;;;;;;;13.54;100.00;100734.97;5010445;28;20536;-73
2023/07/04 10:22:39;;;;;;;6.22;1.73;;;;;;;13.42;100.00;100772.09;5010770;28;20116;-73
2023/07/04 10:25:12;;;;;;;3.42;1.15;;;;;;;13.22;100.00;100721.59;5008765;28;20497;-73
2023/07/04 10:27:40;;;;;;;4.82;2.33;;;;;;;13.04;100.00;100660.28;5012848;28;20393;-73
2023/07/04 10:30:15;;;;;;;3.40;1.50;;;;;;;12.85;100.00;100648.22;4999205;28;20355;-74
2023/07/04 10:32:48;;;;;;;5.35;1.20;;;;;;;13.07;100.00;100659.91;5010767;28;20322;-74
2023/07/04 10:35:18;;;;;;;6.38;1.55;;;;;;;12.67;100.00;100495.03;4999679;28;20030;-74
2023/07/04 10:37:50;;;;;;;2.78;1.20;;;;;;;12.70;100.00;100461.69;5007781;28;20483;-75
2023/07/04 10:40:18;;;;;;;4.40;1.50;;;;;;;13.38;100.00;100519.56;5013472;28;20072;-75
2023/07/04 10:42:57;;;;;;;3.33;1.35;;;;;;;14.19;100.00;100575.84;5006874;28;20076;-75
2023/07/04 10:45:26;;;;;;;5.70;1.30;;;;;;;14.60;100.00;100531.41;5009744;28;20079;-75
2023/07/04 10:47:54;;;;;;;4.93;1.25;;;;;;;14.54;100.00;100495.44;5000848;28;20570;-74
2023/07/04 10:50:25;;;;;;;4.22;1.75;;;;;;;14.84;100.00;100554.34;5014225;28;20992;-75
2023/07/04 10:52:53;;;;;;;2.97;1.20;;;;;;;14.91;100.00;100501.47;4997421;28;20042;-75
2023/07/04 10:55:31;;;;;;;4.93;1.50;;;;;;;14.15;100.00;100426.91;5010864;28;20013;-74
2023/07/04 10:58:05;;;;;;;4.95;1.48;;;;;;;14.05;100.00;100496.19;5011032;28;20117;-75
2023/07/04 11:00:49;;;;;;;5.00;1.70;;;;;;;13.69;100.00;100480.94;4985690;28;20046;-74
2023/07/04 11:03:38;;;;;;;5.90;1.42;;;;;;;13.49;100.00;100529.81;5011351;28;20033;-74
2023/07/04 11:06:10;;;;;;;4.88;1.90;;;;;;;13.44;100.00;100574.31;5009129;23;20116;-72
2023/07/04 11:08:39;;;;;;;8.25;2.10;;;;;;;13.73;100.00;100611.00;4993280;28;20482;-75
2023/07/04 11:11:13;;;;;;;4.55;1.95;;;;;;;13.58;100.00;100589.56;4992747;28;20133;-75
2023/07/04 11:13:49;;;;;;;6.25;1.77;;;;;;;13.80;100.00;100605.72;4992336;28;20034;-75
2023/07/04 11:16:17;;;;;;;5.05;1.77;;;;;;;14.11;100.00;100624.25;5011636;28;20474;-75
2023/07/04 11:18:52;;;;;;;7.03;1.75;;;;;;;14.14;100.00;100618.50;5009934;28;20132;-76
2023/07/04 11:21:19;;;;;;;4.30;1.95;;;;;;;13.82;100.00;100572.31;5008459;28;20030;-75
2023/07/04 11:23:51;;;;;;;5.07;1.50;;;;;;;13.99;100.00;100569.41;5006620;28;20061;-75